sensor_id;sensor_type;location;lat;lon;timestamp;P1;durP1;ratioP1;P2;durP2;ratioP2
57375;SDS011;44805;45.048;5.062;2023-02-04T00:46:49;5.70;;;2.53;;
57375;SDS011;44805;45.048;5.062;2023-02-04T00:49:14;7.00;;;2.28;;
57375;SDS011;44805;45.048;5.062;2023-02-04T00:51:40;5.53;;;2.13;;
57375;SDS011;44805;45.048;5.062;2023-02-04T00:54:10;6.18;;;2.47;;
57375;SDS011;44805;45.048;5.062;2023-02-04T00:56:36;6.25;;;2.47;;
57375;SDS011;44805;45.048;5.062;2023-02-04T00:59:01;6.63;;;2.80;;
57375;SDS011;44805;45.048;5.062;2023-02-04T01:01:27;5.13;;;2.30;;
57375;SDS011;44805;45.048;5.062;2023-02-04T01:07:15;7.57;;;2.72;;
57375;SDS011;44805;45.048;5.062;2023-02-04T01:09:40;5.88;;;2.72;;
57375;SDS011;44805;45.048;5.062;2023-02-04T01:12:06;5.55;;;2.53;;
57375;SDS011;44805;45.048;5.062;2023-02-04T01:14:31;4.78;;;2.10;;
57375;SDS011;44805;45.048;5.062;2023-02-04T01:16:57;5.80;;;2.20;;
57375;SDS011;44805;45.048;5.062;2023-02-04T01:22:28;7.20;;;2.40;;
57375;SDS011;44805;45.048;5.062;2023-02-04T01:24:54;5.53;;;2.20;;
57375;SDS011;44805;45.048;5.062;2023-02-04T01:27:19;6.00;;;2.67;;
57375;SDS011;44805;45.048;5.062;2023-02-04T01:29:44;4.95;;;2.33;;
57375;SDS011;44805;45.048;5.062;2023-02-04T01:32:10;6.57;;;2.60;;
57375;SDS011;44805;45.048;5.062;2023-02-04T01:34:35;4.75;;;2.08;;
57375;SDS011;44805;45.048;5.062;2023-02-04T01:37:01;4.85;;;2.28;;
57375;SDS011;44805;45.048;5.062;2023-02-04T01:39:26;5.65;;;2.72;;
57375;SDS011;44805;45.048;5.062;2023-02-04T01:41:51;6.43;;;2.70;;
57375;SDS011;44805;45.048;5.062;2023-02-04T01:44:17;2.88;;;1.48;;
57375;SDS011;44805;45.048;5.062;2023-02-04T01:46:43;5.88;;;1.67;;
57375;SDS011;44805;45.048;5.062;2023-02-04T01:51:54;4.85;;;2.08;;
57375;SDS011;44805;45.048;5.062;2023-02-04T01:54:19;4.38;;;1.80;;
57375;SDS011;44805;45.048;5.062;2023-02-04T01:56:48;5.88;;;1.90;;
57375;SDS011;44805;45.048;5.062;2023-02-04T01:59:15;2.75;;;1.23;;
57375;SDS011;44805;45.048;5.062;2023-02-04T02:01:46;5.45;;;1.88;;
57375;SDS011;44805;45.048;5.062;2023-02-04T02:04:15;5.25;;;1.98;;
57375;SDS011;44805;45.048;5.062;2023-02-04T02:06:55;2.13;;;1.13;;
57375;SDS011;44805;45.048;5.062;2023-02-04T02:09:23;3.90;;;1.80;;
57375;SDS011;44805;45.048;5.062;2023-02-04T02:11:49;4.50;;;1.73;;
57375;SDS011;44805;45.048;5.062;2023-02-04T02:14:15;3.40;;;1.58;;
57375;SDS011;44805;45.048;5.062;2023-02-04T02:16:41;4.28;;;1.58;;
57375;SDS011;44805;45.048;5.062;2023-02-04T02:22:32;4.85;;;1.83;;
57375;SDS011;44805;45.048;5.062;2023-02-04T02:25:08;4.82;;;2.00;;
57375;SDS011;44805;45.048;5.062;2023-02-04T02:27:35;5.55;;;2.08;;
57375;SDS011;44805;45.048;5.062;2023-02-04T02:30:01;4.05;;;1.77;;
57375;SDS011;44805;45.048;5.062;2023-02-04T02:32:26;5.20;;;1.90;;
57375;SDS011;44805;45.048;5.062;2023-02-04T02:38:14;5.13;;;2.53;;
57375;SDS011;44805;45.048;5.062;2023-02-04T02:40:41;5.20;;;2.63;;
57375;SDS011;44805;45.048;5.062;2023-02-04T02:43:08;5.38;;;2.35;;
57375;SDS011;44805;45.048;5.062;2023-02-04T02:45:38;6.88;;;2.60;;
57375;SDS011;44805;45.048;5.062;2023-02-04T02:48:19;5.13;;;2.35;;
57375;SDS011;44805;45.048;5.062;2023-02-04T02:50:45;4.80;;;2.28;;
57375;SDS011;44805;45.048;5.062;2023-02-04T02:53:12;5.47;;;2.13;;
57375;SDS011;44805;45.048;5.062;2023-02-04T02:55:39;6.07;;;2.83;;
57375;SDS011;44805;45.048;5.062;2023-02-04T02:58:09;5.25;;;2.50;;
57375;SDS011;44805;45.048;5.062;2023-02-04T03:00:40;7.28;;;2.40;;
57375;SDS011;44805;45.048;5.062;2023-02-04T03:03:13;4.97;;;2.38;;
57375;SDS011;44805;45.048;5.062;2023-02-04T03:05:50;5.65;;;2.55;;
57375;SDS011;44805;45.048;5.062;2023-02-04T03:10:44;5.60;;;2.50;;
57375;SDS011;44805;45.048;5.062;2023-02-04T03:13:11;5.10;;;2.78;;
57375;SDS011;44805;45.048;5.062;2023-02-04T03:15:39;6.82;;;2.65;;
57375;SDS011;44805;45.048;5.062;2023-02-04T03:24:36;5.90;;;2.33;;
57375;SDS011;44805;45.048;5.062;2023-02-04T03:27:02;5.35;;;2.17;;
57375;SDS011;44805;45.048;5.062;2023-02-04T03:29:27;4.82;;;2.13;;
57375;SDS011;44805;45.048;5.062;2023-02-04T03:31:53;6.22;;;3.03;;
57375;SDS011;44805;45.048;5.062;2023-02-04T03:37:41;5.90;;;2.80;;
57375;SDS011;44805;45.048;5.062;2023-02-04T03:40:07;4.82;;;2.30;;
57375;SDS011;44805;45.048;5.062;2023-02-04T03:42:33;5.65;;;2.72;;
57375;SDS011;44805;45.048;5.062;2023-02-04T03:44:59;5.20;;;2.72;;
57375;SDS011;44805;45.048;5.062;2023-02-04T03:47:24;6.93;;;2.50;;
57375;SDS011;44805;45.048;5.062;2023-02-04T03:49:49;6.63;;;2.85;;
57375;SDS011;44805;45.048;5.062;2023-02-04T03:52:15;7.20;;;2.90;;
57375;SDS011;44805;45.048;5.062;2023-02-04T03:54:40;6.35;;;2.72;;
57375;SDS011;44805;45.048;5.062;2023-02-04T03:57:06;6.22;;;2.72;;
57375;SDS011;44805;45.048;5.062;2023-02-04T03:59:31;4.78;;;2.58;;
57375;SDS011;44805;45.048;5.062;2023-02-04T04:01:57;5.78;;;2.58;;
57375;SDS011;44805;45.048;5.062;2023-02-04T04:04:23;5.72;;;3.33;;
57375;SDS011;44805;45.048;5.062;2023-02-04T04:06:49;7.22;;;3.10;;
57375;SDS011;44805;45.048;5.062;2023-02-04T04:09:15;5.78;;;2.83;;
57375;SDS011;44805;45.048;5.062;2023-02-04T04:11:40;5.30;;;2.90;;
57375;SDS011;44805;45.048;5.062;2023-02-04T04:14:05;6.63;;;2.72;;
57375;SDS011;44805;45.048;5.062;2023-02-04T04:16:31;5.30;;;2.88;;
57375;SDS011;44805;45.048;5.062;2023-02-04T04:22:27;5.60;;;2.85;;
57375;SDS011;44805;45.048;5.062;2023-02-04T04:24:53;5.88;;;2.45;;
57375;SDS011;44805;45.048;5.062;2023-02-04T04:27:18;6.22;;;2.92;;
57375;SDS011;44805;45.048;5.062;2023-02-04T04:29:44;4.97;;;2.80;;
57375;SDS011;44805;45.048;5.062;2023-02-04T04:32:09;6.93;;;3.13;;
57375;SDS011;44805;45.048;5.062;2023-02-04T04:34:35;6.38;;;2.88;;
57375;SDS011;44805;45.048;5.062;2023-02-04T04:37:00;4.30;;;2.15;;
57375;SDS011;44805;45.048;5.062;2023-02-04T04:39:26;7.32;;;2.80;;
57375;SDS011;44805;45.048;5.062;2023-02-04T04:41:51;6.55;;;2.88;;
57375;SDS011;44805;45.048;5.062;2023-02-04T04:44:17;5.95;;;2.67;;
57375;SDS011;44805;45.048;5.062;2023-02-04T04:46:42;5.88;;;2.80;;
57375;SDS011;44805;45.048;5.062;2023-02-04T04:49:08;6.88;;;2.65;;
57375;SDS011;44805;45.048;5.062;2023-02-04T04:51:33;6.85;;;3.05;;
57375;SDS011;44805;45.048;5.062;2023-02-04T04:53:59;4.82;;;2.60;;
57375;SDS011;44805;45.048;5.062;2023-02-04T04:56:24;7.63;;;2.80;;
57375;SDS011;44805;45.048;5.062;2023-02-04T04:58:50;6.72;;;2.92;;
57375;SDS011;44805;45.048;5.062;2023-02-04T05:01:15;6.28;;;2.83;;
57375;SDS011;44805;45.048;5.062;2023-02-04T05:10:05;6.63;;;3.10;;
57375;SDS011;44805;45.048;5.062;2023-02-04T05:12:31;6.13;;;3.10;;
57375;SDS011;44805;45.048;5.062;2023-02-04T05:14:57;6.38;;;3.30;;
57375;SDS011;44805;45.048;5.062;2023-02-04T05:17:22;6.68;;;3.08;;
57375;SDS011;44805;45.048;5.062;2023-02-04T05:22:44;7.78;;;2.83;;
57375;SDS011;44805;45.048;5.062;2023-02-04T05:25:09;6.32;;;2.97;;
57375;SDS011;44805;45.048;5.062;2023-02-04T05:27:35;6.65;;;3.20;;
57375;SDS011;44805;45.048;5.062;2023-02-04T05:30:00;7.07;;;3.50;;
57375;SDS011;44805;45.048;5.062;2023-02-04T05:32:26;6.25;;;2.58;;
57375;SDS011;44805;45.048;5.062;2023-02-04T05:38:13;7.78;;;3.03;;
57375;SDS011;44805;45.048;5.062;2023-02-04T05:40:38;6.72;;;3.42;;
57375;SDS011;44805;45.048;5.062;2023-02-04T05:43:04;6.18;;;2.75;;
57375;SDS011;44805;45.048;5.062;2023-02-04T05:45:29;6.85;;;3.08;;
57375;SDS011;44805;45.048;5.062;2023-02-04T05:47:55;5.40;;;2.88;;
57375;SDS011;44805;45.048;5.062;2023-02-04T05:54:00;6.07;;;2.70;;
57375;SDS011;44805;45.048;5.062;2023-02-04T06:39:57;8.32;;;3.15;;
57375;SDS011;44805;45.048;5.062;2023-02-04T06:43:23;6.25;;;3.40;;
57375;SDS011;44805;45.048;5.062;2023-02-04T07:20:30;8.23;;;3.42;;
57375;SDS011;44805;45.048;5.062;2023-02-04T08:07:41;8.32;;;2.90;;
57375;SDS011;44805;45.048;5.062;2023-02-04T08:16:15;7.30;;;2.90;;
57375;SDS011;44805;45.048;5.062;2023-02-04T10:11:29;4.32;;;2.00;;
57375;SDS011;44805;45.048;5.062;2023-02-04T10:14:50;4.00;;;1.88;;
57375;SDS011;44805;45.048;5.062;2023-02-04T10:24:50;4.05;;;1.85;;
57375;SDS011;44805;45.048;5.062;2023-02-04T13:12:59;5.18;;;2.13;;
57375;SDS011;44805;45.048;5.062;2023-02-04T13:16:36;5.07;;;2.70;;
57375;SDS011;44805;45.048;5.062;2023-02-04T13:19:30;5.03;;;2.42;;
57375;SDS011;44805;45.048;5.062;2023-02-04T13:22:56;5.60;;;2.78;;
57375;SDS011;44805;45.048;5.062;2023-02-04T13:25:46;6.05;;;3.00;;
57375;SDS011;44805;45.048;5.062;2023-02-04T13:28:23;5.10;;;2.47;;
57375;SDS011;44805;45.048;5.062;2023-02-04T13:30:50;7.20;;;3.88;;
57375;SDS011;44805;45.048;5.062;2023-02-04T13:33:32;6.80;;;3.00;;
57375;SDS011;44805;45.048;5.062;2023-02-04T13:39:45;7.68;;;3.13;;
57375;SDS011;44805;45.048;5.062;2023-02-04T13:42:14;6.88;;;2.78;;
57375;SDS011;44805;45.048;5.062;2023-02-04T13:45:39;6.57;;;2.85;;
57375;SDS011;44805;45.048;5.062;2023-02-04T14:00:16;9.02;;;3.83;;
57375;SDS011;44805;45.048;5.062;2023-02-04T14:12:03;7.80;;;4.00;;
57375;SDS011;44805;45.048;5.062;2023-02-04T14:14:37;6.95;;;3.42;;
57375;SDS011;44805;45.048;5.062;2023-02-04T14:17:04;5.72;;;3.00;;
57375;SDS011;44805;45.048;5.062;2023-02-04T14:25:45;5.15;;;2.53;;
57375;SDS011;44805;45.048;5.062;2023-02-04T14:28:44;5.35;;;2.33;;
57375;SDS011;44805;45.048;5.062;2023-02-04T14:31:58;3.60;;;1.63;;
57375;SDS011;44805;45.048;5.062;2023-02-04T14:35:24;4.40;;;2.05;;
57375;SDS011;44805;45.048;5.062;2023-02-04T14:38:19;3.25;;;1.60;;
57375;SDS011;44805;45.048;5.062;2023-02-04T14:40:45;4.40;;;1.77;;
57375;SDS011;44805;45.048;5.062;2023-02-04T14:43:14;3.40;;;1.67;;
57375;SDS011;44805;45.048;5.062;2023-02-04T14:45:41;3.60;;;1.60;;
57375;SDS011;44805;45.048;5.062;2023-02-04T14:48:08;3.30;;;1.65;;
57375;SDS011;44805;45.048;5.062;2023-02-04T14:54:14;2.33;;;1.30;;
57375;SDS011;44805;45.048;5.062;2023-02-04T14:57:03;2.88;;;1.35;;
57375;SDS011;44805;45.048;5.062;2023-02-04T15:00:18;3.80;;;1.50;;
57375;SDS011;44805;45.048;5.062;2023-02-04T15:05:57;2.80;;;1.30;;
57375;SDS011;44805;45.048;5.062;2023-02-04T15:27:00;3.47;;;1.70;;
57375;SDS011;44805;45.048;5.062;2023-02-04T15:39:59;3.70;;;1.77;;
57375;SDS011;44805;45.048;5.062;2023-02-04T15:43:29;3.50;;;1.60;;
57375;SDS011;44805;45.048;5.062;2023-02-04T15:47:00;3.97;;;1.45;;
57375;SDS011;44805;45.048;5.062;2023-02-04T16:01:21;4.22;;;1.80;;
57375;SDS011;44805;45.048;5.062;2023-02-04T16:03:48;3.97;;;1.75;;
57375;SDS011;44805;45.048;5.062;2023-02-04T16:06:15;5.65;;;2.05;;
57375;SDS011;44805;45.048;5.062;2023-02-04T16:08:40;4.63;;;2.10;;
57375;SDS011;44805;45.048;5.062;2023-02-04T16:24:28;4.78;;;2.20;;
57375;SDS011;44805;45.048;5.062;2023-02-04T16:27:06;3.70;;;2.05;;
57375;SDS011;44805;45.048;5.062;2023-02-04T16:29:35;6.63;;;2.35;;
57375;SDS011;44805;45.048;5.062;2023-02-04T16:32:37;5.63;;;2.40;;
57375;SDS011;44805;45.048;5.062;2023-02-04T16:35:04;5.32;;;2.08;;
57375;SDS011;44805;45.048;5.062;2023-02-04T16:40:56;5.75;;;2.80;;
57375;SDS011;44805;45.048;5.062;2023-02-04T16:43:47;5.18;;;2.60;;
57375;SDS011;44805;45.048;5.062;2023-02-04T16:49:53;6.05;;;2.72;;
57375;SDS011;44805;45.048;5.062;2023-02-04T16:56:02;4.97;;;2.35;;
57375;SDS011;44805;45.048;5.062;2023-02-04T16:58:52;5.25;;;2.50;;
57375;SDS011;44805;45.048;5.062;2023-02-04T17:01:53;5.32;;;2.55;;
57375;SDS011;44805;45.048;5.062;2023-02-04T17:04:25;5.55;;;2.67;;
57375;SDS011;44805;45.048;5.062;2023-02-04T17:07:24;5.05;;;2.28;;
57375;SDS011;44805;45.048;5.062;2023-02-04T17:10:59;5.55;;;2.58;;
57375;SDS011;44805;45.048;5.062;2023-02-04T17:25:54;6.45;;;3.00;;
57375;SDS011;44805;45.048;5.062;2023-02-04T19:25:45;8.25;;;2.88;;
57375;SDS011;44805;45.048;5.062;2023-02-04T19:28:17;8.55;;;3.42;;
57375;SDS011;44805;45.048;5.062;2023-02-04T19:31:05;6.78;;;3.25;;
57375;SDS011;44805;45.048;5.062;2023-02-04T19:44:59;9.88;;;4.35;;
57375;SDS011;44805;45.048;5.062;2023-02-04T19:47:41;8.43;;;3.85;;
57375;SDS011;44805;45.048;5.062;2023-02-04T19:50:19;9.10;;;4.10;;
57375;SDS011;44805;45.048;5.062;2023-02-04T19:53:08;10.57;;;5.35;;
57375;SDS011;44805;45.048;5.062;2023-02-04T19:55:49;7.45;;;3.40;;
57375;SDS011;44805;45.048;5.062;2023-02-04T20:01:13;9.73;;;6.10;;
57375;SDS011;44805;45.048;5.062;2023-02-04T20:04:08;12.25;;;6.95;;
57375;SDS011;44805;45.048;5.062;2023-02-04T20:15:50;15.00;;;7.65;;
57375;SDS011;44805;45.048;5.062;2023-02-04T20:18:22;10.25;;;5.35;;
57375;SDS011;44805;45.048;5.062;2023-02-04T20:20:50;9.43;;;4.70;;
57375;SDS011;44805;45.048;5.062;2023-02-04T20:23:22;8.68;;;4.18;;
57375;SDS011;44805;45.048;5.062;2023-02-04T20:25:52;7.85;;;3.67;;
57375;SDS011;44805;45.048;5.062;2023-02-04T20:28:38;9.18;;;4.60;;
57375;SDS011;44805;45.048;5.062;2023-02-04T20:33:52;9.07;;;4.65;;
57375;SDS011;44805;45.048;5.062;2023-02-04T20:36:35;8.90;;;4.80;;
